sensor_id;sensor_type;location;lat;lon;timestamp;pressure;altitude;pressure_sealevel;temperature;humidity
60918;BME280;46792;38.854;-9.384;2023-11-19T00:00:10;100227.25;;;14.48;100.00
60918;BME280;46792;38.854;-9.384;2023-11-19T00:02:14;100231.03;;;14.47;100.00
60918;BME280;46792;38.854;-9.384;2023-11-19T00:04:15;100231.31;;;14.40;100.00
60918;BME280;46792;38.854;-9.384;2023-11-19T00:06:16;100220.72;;;14.44;100.00
60918;BME280;46792;38.854;-9.384;2023-11-19T00:08:20;100219.06;;;14.53;100.00
60918;BME280;46792;38.854;-9.384;2023-11-19T00:10:20;100216.09;;;14.50;100.00
60918;BME280;46792;38.854;-9.384;2023-11-19T00:12:21;100218.81;;;14.50;100.00
60918;BME280;46792;38.854;-9.384;2023-11-19T00:14:22;100218.00;;;14.39;100.00
60918;BME280;46792;38.854;-9.384;2023-11-19T00:16:24;100212.84;;;14.37;100.00
60918;BME280;46792;38.854;-9.384;2023-11-19T00:18:25;100213.66;;;14.33;100.00
60918;BME280;46792;38.854;-9.384;2023-11-19T00:20:25;100208.78;;;14.45;100.00
60918;BME280;46792;38.854;-9.384;2023-11-19T00:22:26;100206.56;;;14.52;100.00
60918;BME280;46792;38.854;-9.384;2023-11-19T00:24:27;100206.56;;;14.52;100.00
60918;BME280;46792;38.854;-9.384;2023-11-19T00:26:27;100200.63;;;14.45;100.00
60918;BME280;46792;38.854;-9.384;2023-11-19T00:28:29;100201.69;;;14.39;100.00
60918;BME280;46792;38.854;-9.384;2023-11-19T00:30:29;100210.41;;;14.36;100.00
60918;BME280;46792;38.854;-9.384;2023-11-19T00:32:34;100210.13;;;14.32;100.00
60918;BME280;46792;38.854;-9.384;2023-11-19T00:34:35;100198.75;;;14.25;100.00
60918;BME280;46792;38.854;-9.384;2023-11-19T00:36:36;100193.84;;;14.27;100.00
60918;BME280;46792;38.854;-9.384;2023-11-19T00:38:37;100195.47;;;14.28;100.00
60918;BME280;46792;38.854;-9.384;2023-11-19T00:40:37;100185.44;;;14.34;100.00
60918;BME280;46792;38.854;-9.384;2023-11-19T00:42:38;100186.78;;;14.31;100.00
60918;BME280;46792;38.854;-9.384;2023-11-19T00:44:39;100182.44;;;14.35;100.00
60918;BME280;46792;38.854;-9.384;2023-11-19T00:46:40;100176.72;;;14.32;100.00
60918;BME280;46792;38.854;-9.384;2023-11-19T00:48:40;100182.19;;;14.16;100.00
60918;BME280;46792;38.854;-9.384;2023-11-19T00:50:41;100175.09;;;14.20;100.00
60918;BME280;46792;38.854;-9.384;2023-11-19T00:52:44;100184.88;;;14.21;100.00
60918;BME280;46792;38.854;-9.384;2023-11-19T00:54:45;100178.63;;;14.21;100.00
60918;BME280;46792;38.854;-9.384;2023-11-19T00:56:45;100177.56;;;14.27;100.00
60918;BME280;46792;38.854;-9.384;2023-11-19T00:58:46;100171.59;;;14.25;100.00
60918;BME280;46792;38.854;-9.384;2023-11-19T01:00:48;100178.63;;;14.15;100.00
60918;BME280;46792;38.854;-9.384;2023-11-19T01:02:48;100172.66;;;14.03;100.00
60918;BME280;46792;38.854;-9.384;2023-11-19T01:04:50;100168.06;;;14.09;100.00
60918;BME280;46792;38.854;-9.384;2023-11-19T01:06:51;100171.56;;;14.30;100.00
60918;BME280;46792;38.854;-9.384;2023-11-19T01:08:51;100166.69;;;14.06;100.00
60918;BME280;46792;38.854;-9.384;2023-11-19T01:10:53;100165.88;;;14.16;100.00
60918;BME280;46792;38.854;-9.384;2023-11-19T01:12:54;100161.53;;;14.25;100.00
60918;BME280;46792;38.854;-9.384;2023-11-19T01:14:55;100162.59;;;14.24;100.00
60918;BME280;46792;38.854;-9.384;2023-11-19T01:16:57;100165.59;;;14.33;100.00
60918;BME280;46792;38.854;-9.384;2023-11-19T01:18:58;100150.38;;;14.37;100.00
60918;BME280;46792;38.854;-9.384;2023-11-19T01:20:58;100151.19;;;14.43;100.00
60918;BME280;46792;38.854;-9.384;2023-11-19T01:22:59;100147.66;;;14.42;100.00
60918;BME280;46792;38.854;-9.384;2023-11-19T01:24:59;100144.69;;;14.23;100.00
60918;BME280;46792;38.854;-9.384;2023-11-19T01:27:00;100143.31;;;14.36;100.00
60918;BME280;46792;38.854;-9.384;2023-11-19T01:29:01;100142.75;;;14.44;100.00
60918;BME280;46792;38.854;-9.384;2023-11-19T01:31:02;100138.13;;;14.50;100.00
60918;BME280;46792;38.854;-9.384;2023-11-19T01:33:04;100130.81;;;14.40;100.00
60918;BME280;46792;38.854;-9.384;2023-11-19T01:35:05;100131.66;;;14.36;100.00
60918;BME280;46792;38.854;-9.384;2023-11-19T01:37:06;100128.09;;;14.40;100.00
60918;BME280;46792;38.854;-9.384;2023-11-19T01:39:07;100126.47;;;14.29;100.00
60918;BME280;46792;38.854;-9.384;2023-11-19T01:41:07;100124.06;;;14.33;100.00
60918;BME280;46792;38.854;-9.384;2023-11-19T01:43:09;100124.31;;;14.41;100.00
60918;BME280;46792;38.854;-9.384;2023-11-19T01:45:22;100122.94;;;14.44;100.00
60918;BME280;46792;38.854;-9.384;2023-11-19T01:47:28;100121.25;;;14.53;100.00
60918;BME280;46792;38.854;-9.384;2023-11-19T01:49:31;100124.81;;;14.59;100.00
60918;BME280;46792;38.854;-9.384;2023-11-19T01:51:32;100118.25;;;14.60;100.00
60918;BME280;46792;38.854;-9.384;2023-11-19T01:53:36;100113.34;;;14.62;100.00
60918;BME280;46792;38.854;-9.384;2023-11-19T01:55:37;100117.97;;;14.67;100.00
60918;BME280;46792;38.854;-9.384;2023-11-19T01:57:38;100111.50;;;14.68;100.00
60918;BME280;46792;38.854;-9.384;2023-11-19T01:59:41;100105.50;;;14.66;100.00
60918;BME280;46792;38.854;-9.384;2023-11-19T02:01:42;100109.34;;;14.49;100.00
60918;BME280;46792;38.854;-9.384;2023-11-19T02:03:43;100113.72;;;14.35;100.00
60918;BME280;46792;38.854;-9.384;2023-11-19T02:05:43;100116.44;;;14.29;100.00
60918;BME280;46792;38.854;-9.384;2023-11-19T02:07:44;100117.53;;;14.34;100.00
60918;BME280;46792;38.854;-9.384;2023-11-19T02:09:47;100110.44;;;14.43;100.00
60918;BME280;46792;38.854;-9.384;2023-11-19T02:11:48;100118.56;;;14.48;100.00
60918;BME280;46792;38.854;-9.384;2023-11-19T02:13:51;100109.31;;;14.54;100.00
60918;BME280;46792;38.854;-9.384;2023-11-19T02:15:52;100111.22;;;14.59;100.00
60918;BME280;46792;38.854;-9.384;2023-11-19T02:17:53;100102.78;;;14.55;100.00
60918;BME280;46792;38.854;-9.384;2023-11-19T02:19:54;100114.47;;;14.56;100.00
60918;BME280;46792;38.854;-9.384;2023-11-19T02:21:55;100108.56;;;14.43;100.00
60918;BME280;46792;38.854;-9.384;2023-11-19T02:23:56;100097.41;;;14.45;100.00
60918;BME280;46792;38.854;-9.384;2023-11-19T02:26:00;100107.16;;;14.46;100.00
60918;BME280;46792;38.854;-9.384;2023-11-19T02:28:03;100098.47;;;14.44;100.00
60918;BME280;46792;38.854;-9.384;2023-11-19T02:30:05;100103.38;;;14.47;100.00
60918;BME280;46792;38.854;-9.384;2023-11-19T02:32:08;100102.88;;;14.29;100.00
60918;BME280;46792;38.854;-9.384;2023-11-19T02:34:10;100106.41;;;14.25;100.00
60918;BME280;46792;38.854;-9.384;2023-11-19T02:36:13;100099.63;;;14.17;100.00
60918;BME280;46792;38.854;-9.384;2023-11-19T02:38:13;100102.34;;;14.17;100.00
60918;BME280;46792;38.854;-9.384;2023-11-19T02:40:14;100103.94;;;14.28;100.00
60918;BME280;46792;38.854;-9.384;2023-11-19T02:42:15;100096.09;;;14.27;100.00
60918;BME280;46792;38.854;-9.384;2023-11-19T02:44:16;100097.97;;;14.21;100.00
60918;BME280;46792;38.854;-9.384;2023-11-19T02:46:20;100100.19;;;14.19;100.00
60918;BME280;46792;38.854;-9.384;2023-11-19T02:48:20;100098.56;;;14.18;100.00
60918;BME280;46792;38.854;-9.384;2023-11-19T02:50:22;100088.47;;;14.29;100.00
60918;BME280;46792;38.854;-9.384;2023-11-19T02:52:25;100092.81;;;14.30;100.00
60918;BME280;46792;38.854;-9.384;2023-11-19T02:54:26;100097.44;;;14.29;100.00
60918;BME280;46792;38.854;-9.384;2023-11-19T02:56:27;100088.50;;;14.24;100.00
60918;BME280;46792;38.854;-9.384;2023-11-19T02:58:29;100090.41;;;13.92;100.00
60918;BME280;46792;38.854;-9.384;2023-11-19T03:00:31;100099.91;;;14.05;100.00
60918;BME280;46792;38.854;-9.384;2023-11-19T03:02:40;100097.50;;;13.98;100.00
60918;BME280;46792;38.854;-9.384;2023-11-19T03:04:46;100098.31;;;13.94;100.00
60918;BME280;46792;38.854;-9.384;2023-11-19T03:06:47;100096.13;;;13.96;100.00
60918;BME280;46792;38.854;-9.384;2023-11-19T03:08:48;100092.63;;;13.85;100.00
60918;BME280;46792;38.854;-9.384;2023-11-19T03:10:48;100089.34;;;13.83;100.00
60918;BME280;46792;38.854;-9.384;2023-11-19T03:12:49;100094.50;;;13.90;100.00
60918;BME280;46792;38.854;-9.384;2023-11-19T03:14:50;100090.16;;;13.94;100.00
60918;BME280;46792;38.854;-9.384;2023-11-19T03:16:51;100096.69;;;13.93;100.00
60918;BME280;46792;38.854;-9.384;2023-11-19T03:18:52;100091.78;;;14.00;100.00
60918;BME280;46792;38.854;-9.384;2023-11-19T03:20:53;100093.66;;;14.05;100.00
60918;BME280;46792;38.854;-9.384;2023-11-19T03:22:53;100093.97;;;13.93;100.00
60918;BME280;46792;38.854;-9.384;2023-11-19T03:24:54;100092.59;;;13.90;100.00
60918;BME280;46792;38.854;-9.384;2023-11-19T03:26:55;100093.97;;;13.77;100.00
60918;BME280;46792;38.854;-9.384;2023-11-19T03:28:56;100089.34;;;13.88;100.00
60918;BME280;46792;38.854;-9.384;2023-11-19T03:30:57;100096.13;;;13.86;100.00
60918;BME280;46792;38.854;-9.384;2023-11-19T03:32:58;100101.28;;;13.82;100.00
60918;BME280;46792;38.854;-9.384;2023-11-19T03:35:00;100092.06;;;13.98;100.00
60918;BME280;46792;38.854;-9.384;2023-11-19T03:37:00;100085.81;;;14.08;100.00
60918;BME280;46792;38.854;-9.384;2023-11-19T03:39:02;100085.53;;;14.15;100.00
60918;BME280;46792;38.854;-9.384;2023-11-19T03:41:13;100083.88;;;14.19;100.00
60918;BME280;46792;38.854;-9.384;2023-11-19T03:43:14;100070.56;;;14.18;100.00
60918;BME280;46792;38.854;-9.384;2023-11-19T03:45:16;100079.25;;;14.20;100.00
60918;BME280;46792;38.854;-9.384;2023-11-19T03:47:17;100078.97;;;14.21;100.00
60918;BME280;46792;38.854;-9.384;2023-11-19T03:49:18;100065.94;;;14.23;100.00
60918;BME280;46792;38.854;-9.384;2023-11-19T03:51:19;100065.69;;;14.20;100.00
60918;BME280;46792;38.854;-9.384;2023-11-19T03:53:19;100062.97;;;14.25;100.00
60918;BME280;46792;38.854;-9.384;2023-11-19T03:55:20;100062.47;;;14.07;100.00
60918;BME280;46792;38.854;-9.384;2023-11-19T03:57:21;100056.75;;;14.09;100.00
60918;BME280;46792;38.854;-9.384;2023-11-19T03:59:25;100058.13;;;14.06;100.00
60918;BME280;46792;38.854;-9.384;2023-11-19T04:01:25;100052.16;;;13.94;100.00
60918;BME280;46792;38.854;-9.384;2023-11-19T04:03:26;100051.88;;;14.01;100.00
60918;BME280;46792;38.854;-9.384;2023-11-19T04:05:27;100056.75;;;14.09;100.00
60918;BME280;46792;38.854;-9.384;2023-11-19T04:07:27;100053.78;;;14.05;100.00
60918;BME280;46792;38.854;-9.384;2023-11-19T04:09:28;100044.78;;;14.10;100.00
60918;BME280;46792;38.854;-9.384;2023-11-19T04:11:30;100043.72;;;14.11;100.00
60918;BME280;46792;38.854;-9.384;2023-11-19T04:13:30;100049.44;;;14.09;100.00
60918;BME280;46792;38.854;-9.384;2023-11-19T04:15:31;100051.03;;;14.15;100.00
60918;BME280;46792;38.854;-9.384;2023-11-19T04:17:32;100042.34;;;14.13;100.00
60918;BME280;46792;38.854;-9.384;2023-11-19T04:19:33;100031.22;;;14.10;100.00
60918;BME280;46792;38.854;-9.384;2023-11-19T04:21:34;100045.06;;;14.13;100.00
60918;BME280;46792;38.854;-9.384;2023-11-19T04:23:34;100037.72;;;14.14;100.00
60918;BME280;46792;38.854;-9.384;2023-11-19T04:25:35;100046.41;;;14.16;100.00
60918;BME280;46792;38.854;-9.384;2023-11-19T04:27:36;100039.38;;;14.15;100.00
60918;BME280;46792;38.854;-9.384;2023-11-19T04:29:37;100035.56;;;14.16;100.00
60918;BME280;46792;38.854;-9.384;2023-11-19T04:31:38;100037.72;;;14.14;100.00
60918;BME280;46792;38.854;-9.384;2023-11-19T04:33:39;100040.69;;;14.18;100.00
60918;BME280;46792;38.854;-9.384;2023-11-19T04:35:40;100043.16;;;14.19;100.00
60918;BME280;46792;38.854;-9.384;2023-11-19T04:37:41;100032.31;;;14.14;100.00
60918;BME280;46792;38.854;-9.384;2023-11-19T04:39:44;100036.13;;;14.03;100.00
60918;BME280;46792;38.854;-9.384;2023-11-19T04:41:51;100038.03;;;13.97;100.00
60918;BME280;46792;38.854;-9.384;2023-11-19T04:43:54;100041.28;;;13.99;100.00
60918;BME280;46792;38.854;-9.384;2023-11-19T04:45:54;100033.97;;;13.89;100.00
60918;BME280;46792;38.854;-9.384;2023-11-19T04:47:55;100027.19;;;13.92;100.00
60918;BME280;46792;38.854;-9.384;2023-11-19T04:49:56;100033.44;;;13.92;100.00
60918;BME280;46792;38.854;-9.384;2023-11-19T04:51:56;100033.44;;;13.97;100.00
60918;BME280;46792;38.854;-9.384;2023-11-19T04:53:57;100030.44;;;13.99;100.00
60918;BME280;46792;38.854;-9.384;2023-11-19T04:55:57;100033.13;;;13.99;100.00
60918;BME280;46792;38.854;-9.384;2023-11-19T04:57:59;100029.34;;;14.00;100.00
60918;BME280;46792;38.854;-9.384;2023-11-19T05:00:00;100028.78;;;13.98;100.00
60918;BME280;46792;38.854;-9.384;2023-11-19T05:02:01;100028.00;;;14.03;100.00
60918;BME280;46792;38.854;-9.384;2023-11-19T05:04:01;100023.66;;;14.02;100.00
60918;BME280;46792;38.854;-9.384;2023-11-19T05:06:02;100020.13;;;13.96;100.00
60918;BME280;46792;38.854;-9.384;2023-11-19T05:08:03;100022.81;;;14.01;100.00
60918;BME280;46792;38.854;-9.384;2023-11-19T05:10:04;100018.47;;;14.00;100.00
60918;BME280;46792;38.854;-9.384;2023-11-19T05:12:06;100016.31;;;14.02;100.00
60918;BME280;46792;38.854;-9.384;2023-11-19T05:14:10;100011.72;;;13.92;100.00
60918;BME280;46792;38.854;-9.384;2023-11-19T05:16:11;100017.44;;;13.91;100.00
60918;BME280;46792;38.854;-9.384;2023-11-19T05:18:14;100012.81;;;13.91;100.00
60918;BME280;46792;38.854;-9.384;2023-11-19T05:20:15;100012.00;;;13.91;100.00
60918;BME280;46792;38.854;-9.384;2023-11-19T05:22:15;100009.28;;;13.80;100.00
60918;BME280;46792;38.854;-9.384;2023-11-19T05:24:16;100013.13;;;13.79;100.00
60918;BME280;46792;38.854;-9.384;2023-11-19T05:26:20;100014.75;;;13.75;100.00
60918;BME280;46792;38.854;-9.384;2023-11-19T05:28:21;100006.34;;;13.72;100.00
60918;BME280;46792;38.854;-9.384;2023-11-19T05:30:25;100005.22;;;13.78;100.00
60918;BME280;46792;38.854;-9.384;2023-11-19T05:32:25;100012.53;;;13.82;100.00
60918;BME280;46792;38.854;-9.384;2023-11-19T05:34:27;100002.53;;;13.78;100.00
60918;BME280;46792;38.854;-9.384;2023-11-19T05:36:27;100006.06;;;13.68;100.00
60918;BME280;46792;38.854;-9.384;2023-11-19T05:38:29;100008.78;;;13.73;100.00
60918;BME280;46792;38.854;-9.384;2023-11-19T05:40:30;100010.41;;;13.74;100.00
60918;BME280;46792;38.854;-9.384;2023-11-19T05:42:30;100008.47;;;13.75;100.00
60918;BME280;46792;38.854;-9.384;2023-11-19T05:44:31;100004.16;;;13.68;100.00
60918;BME280;46792;38.854;-9.384;2023-11-19T05:46:32;100004.16;;;13.68;100.00
60918;BME280;46792;38.854;-9.384;2023-11-19T05:48:33;100002.25;;;13.69;100.00
60918;BME280;46792;38.854;-9.384;2023-11-19T05:50:34;99999.81;;;13.62;100.00
60918;BME280;46792;38.854;-9.384;2023-11-19T05:52:34;100002.81;;;13.71;100.00
60918;BME280;46792;38.854;-9.384;2023-11-19T05:54:35;100000.38;;;13.69;100.00
60918;BME280;46792;38.854;-9.384;2023-11-19T05:56:38;99998.47;;;13.65;100.00
60918;BME280;46792;38.854;-9.384;2023-11-19T05:58:38;100007.13;;;13.67;100.00
60918;BME280;46792;38.854;-9.384;2023-11-19T06:00:41;100006.34;;;13.72;100.00
60918;BME280;46792;38.854;-9.384;2023-11-19T06:02:41;100003.09;;;13.69;100.00
60918;BME280;46792;38.854;-9.384;2023-11-19T06:04:43;100002.53;;;13.67;100.00
60918;BME280;46792;38.854;-9.384;2023-11-19T06:06:45;99995.50;;;13.66;100.00
60918;BME280;46792;38.854;-9.384;2023-11-19T06:08:45;99997.66;;;13.69;100.00
60918;BME280;46792;38.854;-9.384;2023-11-19T06:10:47;99990.88;;;13.72;100.00
60918;BME280;46792;38.854;-9.384;2023-11-19T06:12:50;100002.53;;;13.67;100.00
60918;BME280;46792;38.854;-9.384;2023-11-19T06:14:56;99997.13;;;13.62;100.00
60918;BME280;46792;38.854;-9.384;2023-11-19T06:16:57;99993.59;;;13.51;100.00
60918;BME280;46792;38.854;-9.384;2023-11-19T06:18:57;99993.31;;;13.58;100.00
60918;BME280;46792;38.854;-9.384;2023-11-19T06:20:58;99989.25;;;13.61;100.00
60918;BME280;46792;38.854;-9.384;2023-11-19T06:22:59;99987.91;;;13.53;100.00
60918;BME280;46792;38.854;-9.384;2023-11-19T06:25:00;99984.13;;;13.54;100.00
60918;BME280;46792;38.854;-9.384;2023-11-19T06:27:00;99983.28;;;13.53;100.00
60918;BME280;46792;38.854;-9.384;2023-11-19T06:29:01;99985.19;;;13.48;100.00
60918;BME280;46792;38.854;-9.384;2023-11-19T06:31:03;99981.66;;;13.52;100.00
60918;BME280;46792;38.854;-9.384;2023-11-19T06:33:04;99985.19;;;13.53;100.00
60918;BME280;46792;38.854;-9.384;2023-11-19T06:35:05;99987.91;;;13.53;100.00
60918;BME280;46792;38.854;-9.384;2023-11-19T06:37:05;99990.06;;;13.56;100.00
60918;BME280;46792;38.854;-9.384;2023-11-19T06:39:06;99983.00;;;13.60;100.00
60918;BME280;46792;38.854;-9.384;2023-11-19T06:41:08;99989.50;;;13.64;100.00
60918;BME280;46792;38.854;-9.384;2023-11-19T06:43:09;99988.97;;;13.67;100.00
60918;BME280;46792;38.854;-9.384;2023-11-19T06:45:10;99984.09;;;13.59;100.00
60918;BME280;46792;38.854;-9.384;2023-11-19T06:47:11;99992.22;;;13.64;100.00
60918;BME280;46792;38.854;-9.384;2023-11-19T06:49:11;99984.91;;;13.60;100.00
60918;BME280;46792;38.854;-9.384;2023-11-19T06:51:12;99994.41;;;13.57;100.00
60918;BME280;46792;38.854;-9.384;2023-11-19T06:53:13;99987.63;;;13.60;100.00
60918;BME280;46792;38.854;-9.384;2023-11-19T06:55:14;99987.09;;;13.63;100.00
60918;BME280;46792;38.854;-9.384;2023-11-19T06:57:15;99983.56;;;13.62;100.00
60918;BME280;46792;38.854;-9.384;2023-11-19T06:59:16;99979.22;;;13.61;100.00
60918;BME280;46792;38.854;-9.384;2023-11-19T07:01:17;99989.50;;;13.59;100.00
60918;BME280;46792;38.854;-9.384;2023-11-19T07:03:18;99983.84;;;13.56;100.00
60918;BME280;46792;38.854;-9.384;2023-11-19T07:05:20;99983.84;;;13.61;100.00
60918;BME280;46792;38.854;-9.384;2023-11-19T07:07:21;99992.50;;;13.63;100.00
60918;BME280;46792;38.854;-9.384;2023-11-19T07:09:26;99994.41;;;13.67;100.00
60918;BME280;46792;38.854;-9.384;2023-11-19T07:11:27;99993.56;;;13.67;100.00
60918;BME280;46792;38.854;-9.384;2023-11-19T07:13:27;100002.53;;;13.57;100.00
60918;BME280;46792;38.854;-9.384;2023-11-19T07:15:28;99991.16;;;13.55;100.00
60918;BME280;46792;38.854;-9.384;2023-11-19T07:17:30;100001.72;;;13.57;100.00
60918;BME280;46792;38.854;-9.384;2023-11-19T07:19:31;99996.84;;;13.53;100.00
60918;BME280;46792;38.854;-9.384;2023-11-19T07:21:32;100010.97;;;13.56;100.00
60918;BME280;46792;38.854;-9.384;2023-11-19T07:23:35;100006.88;;;13.48;100.00
60918;BME280;46792;38.854;-9.384;2023-11-19T07:25:36;100005.53;;;13.45;100.00
60918;BME280;46792;38.854;-9.384;2023-11-19T07:27:37;100008.22;;;13.50;100.00
60918;BME280;46792;38.854;-9.384;2023-11-19T07:29:38;100007.69;;;13.53;100.00
60918;BME280;46792;38.854;-9.384;2023-11-19T07:31:39;100007.97;;;13.52;100.00
60918;BME280;46792;38.854;-9.384;2023-11-19T07:33:40;100006.91;;;13.53;100.00
60918;BME280;46792;38.854;-9.384;2023-11-19T07:35:44;100014.22;;;13.58;100.00
60918;BME280;46792;38.854;-9.384;2023-11-19T07:37:45;100018.81;;;13.57;100.00
60918;BME280;46792;38.854;-9.384;2023-11-19T07:39:48;100020.19;;;13.54;100.00
60918;BME280;46792;38.854;-9.384;2023-11-19T07:41:48;100022.59;;;13.56;100.00
60918;BME280;46792;38.854;-9.384;2023-11-19T07:43:49;100023.44;;;13.57;100.00
60918;BME280;46792;38.854;-9.384;2023-11-19T07:45:51;100027.78;;;13.58;100.00
60918;BME280;46792;38.854;-9.384;2023-11-19T07:47:51;100023.16;;;13.58;100.00
60918;BME280;46792;38.854;-9.384;2023-11-19T07:49:52;100024.81;;;13.54;100.00
60918;BME280;46792;38.854;-9.384;2023-11-19T07:51:53;100029.13;;;13.50;100.00
60918;BME280;46792;38.854;-9.384;2023-11-19T07:53:53;100026.44;;;13.55;100.00
60918;BME280;46792;38.854;-9.384;2023-11-19T07:55:54;100035.09;;;13.52;100.00
60918;BME280;46792;38.854;-9.384;2023-11-19T07:57:54;100023.72;;;13.55;100.00
60918;BME280;46792;38.854;-9.384;2023-11-19T07:59:56;100025.59;;;13.49;100.00
60918;BME280;46792;38.854;-9.384;2023-11-19T08:01:57;100026.16;;;13.46;100.00
60918;BME280;46792;38.854;-9.384;2023-11-19T08:03:58;100033.47;;;13.51;100.00
60918;BME280;46792;38.854;-9.384;2023-11-19T08:05:59;100034.56;;;13.55;100.00
60918;BME280;46792;38.854;-9.384;2023-11-19T08:08:00;100031.03;;;13.49;100.00
60918;BME280;46792;38.854;-9.384;2023-11-19T08:10:00;100032.41;;;13.52;100.00
60918;BME280;46792;38.854;-9.384;2023-11-19T08:12:01;100037.00;;;13.51;100.00
60918;BME280;46792;38.854;-9.384;2023-11-19T08:14:01;100031.56;;;13.41;100.00
60918;BME280;46792;38.854;-9.384;2023-11-19T08:16:03;100035.63;;;13.44;100.00
60918;BME280;46792;38.854;-9.384;2023-11-19T08:18:03;100032.91;;;13.44;100.00
60918;BME280;46792;38.854;-9.384;2023-11-19T08:20:06;100037.00;;;13.46;100.00
60918;BME280;46792;38.854;-9.384;2023-11-19T08:22:10;100034.81;;;13.48;100.00
60918;BME280;46792;38.854;-9.384;2023-11-19T08:24:11;100029.41;;;13.43;100.00
60918;BME280;46792;38.854;-9.384;2023-11-19T08:26:11;100038.09;;;13.45;100.00
60918;BME280;46792;38.854;-9.384;2023-11-19T08:28:12;100041.88;;;13.49;100.00
60918;BME280;46792;38.854;-9.384;2023-11-19T08:30:13;100034.00;;;13.58;100.00
60918;BME280;46792;38.854;-9.384;2023-11-19T08:32:14;100041.06;;;13.54;100.00
60918;BME280;46792;38.854;-9.384;2023-11-19T08:34:14;100031.84;;;13.55;100.00
60918;BME280;46792;38.854;-9.384;2023-11-19T08:36:16;100037.25;;;13.60;100.00
60918;BME280;46792;38.854;-9.384;2023-11-19T08:38:17;100043.50;;;13.61;100.00
60918;BME280;46792;38.854;-9.384;2023-11-19T08:40:18;100032.94;;;13.64;100.00
60918;BME280;46792;38.854;-9.384;2023-11-19T08:42:18;100042.69;;;13.65;100.00
60918;BME280;46792;38.854;-9.384;2023-11-19T08:44:19;100037.00;;;13.77;100.00
60918;BME280;46792;38.854;-9.384;2023-11-19T08:46:20;100040.75;;;13.81;100.00
60918;BME280;46792;38.854;-9.384;2023-11-19T08:48:20;100042.09;;;13.89;100.00
60918;BME280;46792;38.854;-9.384;2023-11-19T08:50:21;100039.41;;;13.94;100.00
60918;BME280;46792;38.854;-9.384;2023-11-19T08:52:25;100041.28;;;13.99;100.00
60918;BME280;46792;38.854;-9.384;2023-11-19T08:54:25;100040.19;;;14.05;100.00
60918;BME280;46792;38.854;-9.384;2023-11-19T08:56:26;100041.81;;;14.11;100.00
60918;BME280;46792;38.854;-9.384;2023-11-19T08:58:32;100034.47;;;14.12;100.00
60918;BME280;46792;38.854;-9.384;2023-11-19T09:00:32;100050.72;;;14.22;100.00
60918;BME280;46792;38.854;-9.384;2023-11-19T09:02:36;100043.13;;;14.35;100.00
60918;BME280;46792;38.854;-9.384;2023-11-19T09:04:39;100048.22;;;14.47;100.00
60918;BME280;46792;38.854;-9.384;2023-11-19T09:06:41;100043.56;;;14.57;100.00
60918;BME280;46792;38.854;-9.384;2023-11-19T09:08:43;100035.94;;;14.59;100.00
60918;BME280;46792;38.854;-9.384;2023-11-19T09:10:43;100042.41;;;14.79;100.00
60918;BME280;46792;38.854;-9.384;2023-11-19T09:12:44;100044.22;;;14.94;100.00
60918;BME280;46792;38.854;-9.384;2023-11-19T09:14:45;100050.38;;;15.10;100.00
60918;BME280;46792;38.854;-9.384;2023-11-19T09:16:46;100046.22;;;15.23;100.00
60918;BME280;46792;38.854;-9.384;2023-11-19T09:18:46;100046.13;;;15.39;100.00
60918;BME280;46792;38.854;-9.384;2023-11-19T09:20:47;100039.25;;;15.46;100.00
60918;BME280;46792;38.854;-9.384;2023-11-19T09:22:47;100044.09;;;15.49;100.00
60918;BME280;46792;38.854;-9.384;2023-11-19T09:24:48;100040.22;;;15.61;100.00
60918;BME280;46792;38.854;-9.384;2023-11-19T09:26:49;100044.50;;;15.67;100.00
60918;BME280;46792;38.854;-9.384;2023-11-19T09:28:50;100041.22;;;15.70;100.00
60918;BME280;46792;38.854;-9.384;2023-11-19T09:30:50;100041.19;;;15.75;100.00
60918;BME280;46792;38.854;-9.384;2023-11-19T09:32:51;100038.91;;;15.88;100.00
60918;BME280;46792;38.854;-9.384;2023-11-19T09:34:51;100044.78;;;16.00;100.00
60918;BME280;46792;38.854;-9.384;2023-11-19T09:36:52;100047.69;;;16.09;100.00
60918;BME280;46792;38.854;-9.384;2023-11-19T09:38:53;100046.25;;;16.17;100.00
60918;BME280;46792;38.854;-9.384;2023-11-19T09:40:53;100037.19;;;16.21;100.00
60918;BME280;46792;38.854;-9.384;2023-11-19T09:42:54;100040.69;;;16.27;100.00
60918;BME280;46792;38.854;-9.384;2023-11-19T09:44:56;100045.66;;;16.44;100.00
60918;BME280;46792;38.854;-9.384;2023-11-19T09:46:58;100038.13;;;16.60;100.00
60918;BME280;46792;38.854;-9.384;2023-11-19T09:49:01;100041.59;;;16.66;100.00
60918;BME280;46792;38.854;-9.384;2023-11-19T09:51:11;100041.97;;;16.78;100.00
60918;BME280;46792;38.854;-9.384;2023-11-19T09:53:11;100044.53;;;16.88;100.00
60918;BME280;46792;38.854;-9.384;2023-11-19T09:55:13;100042.53;;;16.99;100.00
60918;BME280;46792;38.854;-9.384;2023-11-19T09:57:14;100038.69;;;17.00;100.00
60918;BME280;46792;38.854;-9.384;2023-11-19T09:59:18;100043.84;;;17.02;100.00
60918;BME280;46792;38.854;-9.384;2023-11-19T10:01:19;100037.00;;;17.05;100.00
60918;BME280;46792;38.854;-9.384;2023-11-19T10:03:21;100048.47;;;16.82;100.00
60918;BME280;46792;38.854;-9.384;2023-11-19T10:05:25;100053.03;;;16.87;100.00
60918;BME280;46792;38.854;-9.384;2023-11-19T10:07:26;100056.47;;;16.73;100.00
60918;BME280;46792;38.854;-9.384;2023-11-19T10:09:27;100056.25;;;16.21;100.00
60918;BME280;46792;38.854;-9.384;2023-11-19T10:11:28;100063.16;;;16.14;100.00
60918;BME280;46792;38.854;-9.384;2023-11-19T10:13:29;100069.16;;;15.86;100.00
60918;BME280;46792;38.854;-9.384;2023-11-19T10:15:35;100065.94;;;16.08;100.00
60918;BME280;46792;38.854;-9.384;2023-11-19T10:17:36;100056.41;;;16.06;100.00